sensor_id;sensor_type;location;lat;lon;timestamp;temperature;humidity
78649;DHT22;67962;47.310;9.642;2023-04-06T00:01:43;5.80;48.60
78649;DHT22;67962;47.310;9.642;2023-04-06T00:04:09;5.90;48.40
78649;DHT22;67962;47.310;9.642;2023-04-06T00:06:35;5.80;48.40
78649;DHT22;67962;47.310;9.642;2023-04-06T00:09:01;5.70;49.50
78649;DHT22;67962;47.310;9.642;2023-04-06T00:11:27;5.70;48.20
78649;DHT22;67962;47.310;9.642;2023-04-06T00:13:53;5.70;47.60
78649;DHT22;67962;47.310;9.642;2023-04-06T00:16:19;5.70;47.50
78649;DHT22;67962;47.310;9.642;2023-04-06T00:18:45;5.80;47.00
78649;DHT22;67962;47.310;9.642;2023-04-06T00:21:12;5.70;46.30
78649;DHT22;67962;47.310;9.642;2023-04-06T00:23:41;5.70;46.70
78649;DHT22;67962;47.310;9.642;2023-04-06T00:26:08;5.70;46.70
78649;DHT22;67962;47.310;9.642;2023-04-06T00:28:34;5.70;46.60
78649;DHT22;67962;47.310;9.642;2023-04-06T00:30:59;5.60;46.20
78649;DHT22;67962;47.310;9.642;2023-04-06T00:33:25;5.50;46.30
78649;DHT22;67962;47.310;9.642;2023-04-06T00:35:51;5.50;46.80
78649;DHT22;67962;47.310;9.642;2023-04-06T00:38:17;5.50;46.90
78649;DHT22;67962;47.310;9.642;2023-04-06T00:40:43;5.60;47.20
78649;DHT22;67962;47.310;9.642;2023-04-06T00:43:12;5.60;47.20
78649;DHT22;67962;47.310;9.642;2023-04-06T00:45:38;5.40;47.80
78649;DHT22;67962;47.310;9.642;2023-04-06T00:48:05;5.30;48.60
78649;DHT22;67962;47.310;9.642;2023-04-06T00:50:30;5.20;49.30
78649;DHT22;67962;47.310;9.642;2023-04-06T00:52:56;5.20;49.10
78649;DHT22;67962;47.310;9.642;2023-04-06T00:55:22;5.10;49.10
78649;DHT22;67962;47.310;9.642;2023-04-06T00:57:48;5.10;49.20
78649;DHT22;67962;47.310;9.642;2023-04-06T01:00:16;5.10;49.20
78649;DHT22;67962;47.310;9.642;2023-04-06T01:02:42;5.10;48.90
78649;DHT22;67962;47.310;9.642;2023-04-06T01:05:08;5.10;48.60
78649;DHT22;67962;47.310;9.642;2023-04-06T01:07:34;5.00;48.90
78649;DHT22;67962;47.310;9.642;2023-04-06T01:09:59;5.00;48.60
78649;DHT22;67962;47.310;9.642;2023-04-06T01:12:26;5.00;48.80
78649;DHT22;67962;47.310;9.642;2023-04-06T01:14:52;4.90;48.30
78649;DHT22;67962;47.310;9.642;2023-04-06T01:17:17;4.90;48.70
78649;DHT22;67962;47.310;9.642;2023-04-06T01:19:43;5.00;47.90
78649;DHT22;67962;47.310;9.642;2023-04-06T01:22:15;5.00;47.90
78649;DHT22;67962;47.310;9.642;2023-04-06T01:24:41;4.90;47.80
78649;DHT22;67962;47.310;9.642;2023-04-06T01:27:07;4.90;47.50
78649;DHT22;67962;47.310;9.642;2023-04-06T01:29:33;4.90;47.80
78649;DHT22;67962;47.310;9.642;2023-04-06T01:31:58;4.90;47.50
78649;DHT22;67962;47.310;9.642;2023-04-06T01:34:24;5.00;48.60
78649;DHT22;67962;47.310;9.642;2023-04-06T01:36:50;4.90;48.80
78649;DHT22;67962;47.310;9.642;2023-04-06T01:39:16;4.80;49.50
78649;DHT22;67962;47.310;9.642;2023-04-06T01:41:42;4.60;50.00
78649;DHT22;67962;47.310;9.642;2023-04-06T01:44:07;4.60;50.50
78649;DHT22;67962;47.310;9.642;2023-04-06T01:46:33;4.50;50.50
78649;DHT22;67962;47.310;9.642;2023-04-06T01:48:59;4.60;51.40
78649;DHT22;67962;47.310;9.642;2023-04-06T01:51:24;4.50;51.00
78649;DHT22;67962;47.310;9.642;2023-04-06T01:53:51;4.40;51.50
78649;DHT22;67962;47.310;9.642;2023-04-06T01:56:16;4.50;51.50
78649;DHT22;67962;47.310;9.642;2023-04-06T01:58:42;4.50;51.60
78649;DHT22;67962;47.310;9.642;2023-04-06T02:01:08;4.50;51.30
78649;DHT22;67962;47.310;9.642;2023-04-06T02:03:34;4.40;51.10
78649;DHT22;67962;47.310;9.642;2023-04-06T02:05:59;4.30;52.50
78649;DHT22;67962;47.310;9.642;2023-04-06T02:08:25;4.40;51.50
78649;DHT22;67962;47.310;9.642;2023-04-06T02:10:51;4.50;51.30
78649;DHT22;67962;47.310;9.642;2023-04-06T02:13:17;4.50;51.20
78649;DHT22;67962;47.310;9.642;2023-04-06T02:15:43;4.50;51.40
78649;DHT22;67962;47.310;9.642;2023-04-06T02:18:08;4.60;51.80
78649;DHT22;67962;47.310;9.642;2023-04-06T02:20:35;4.50;52.30
78649;DHT22;67962;47.310;9.642;2023-04-06T02:23:01;4.50;52.20
78649;DHT22;67962;47.310;9.642;2023-04-06T02:25:26;4.50;52.50
78649;DHT22;67962;47.310;9.642;2023-04-06T02:27:52;4.40;52.60
78649;DHT22;67962;47.310;9.642;2023-04-06T02:30:18;4.40;53.20
78649;DHT22;67962;47.310;9.642;2023-04-06T02:32:43;4.30;53.40
78649;DHT22;67962;47.310;9.642;2023-04-06T02:35:09;4.20;53.40
78649;DHT22;67962;47.310;9.642;2023-04-06T02:37:35;4.30;53.60
78649;DHT22;67962;47.310;9.642;2023-04-06T02:40:00;4.20;53.60
78649;DHT22;67962;47.310;9.642;2023-04-06T02:42:26;4.20;53.10
78649;DHT22;67962;47.310;9.642;2023-04-06T02:44:52;4.10;53.90
78649;DHT22;67962;47.310;9.642;2023-04-06T02:47:17;4.10;54.30
78649;DHT22;67962;47.310;9.642;2023-04-06T02:49:43;4.20;54.20
78649;DHT22;67962;47.310;9.642;2023-04-06T02:52:09;4.20;53.80
78649;DHT22;67962;47.310;9.642;2023-04-06T02:54:34;4.10;54.20
78649;DHT22;67962;47.310;9.642;2023-04-06T02:57:00;4.00;54.00
78649;DHT22;67962;47.310;9.642;2023-04-06T02:59:26;4.00;54.20
78649;DHT22;67962;47.310;9.642;2023-04-06T03:01:51;4.10;53.80
78649;DHT22;67962;47.310;9.642;2023-04-06T03:04:17;4.00;53.50
78649;DHT22;67962;47.310;9.642;2023-04-06T03:06:43;4.00;53.50
78649;DHT22;67962;47.310;9.642;2023-04-06T03:09:08;4.00;53.40
78649;DHT22;67962;47.310;9.642;2023-04-06T03:11:34;3.90;53.60
78649;DHT22;67962;47.310;9.642;2023-04-06T03:14:00;3.90;54.30
78649;DHT22;67962;47.310;9.642;2023-04-06T03:16:25;3.90;54.10
78649;DHT22;67962;47.310;9.642;2023-04-06T03:18:51;3.90;54.50
78649;DHT22;67962;47.310;9.642;2023-04-06T03:21:17;3.90;54.50
78649;DHT22;67962;47.310;9.642;2023-04-06T03:23:43;3.90;54.20
78649;DHT22;67962;47.310;9.642;2023-04-06T03:26:08;3.90;54.40
78649;DHT22;67962;47.310;9.642;2023-04-06T03:28:35;3.80;54.50
78649;DHT22;67962;47.310;9.642;2023-04-06T03:31:01;3.70;55.00
78649;DHT22;67962;47.310;9.642;2023-04-06T03:33:26;3.80;55.00
78649;DHT22;67962;47.310;9.642;2023-04-06T03:35:53;3.80;54.20
78649;DHT22;67962;47.310;9.642;2023-04-06T03:38:19;3.70;54.50
78649;DHT22;67962;47.310;9.642;2023-04-06T03:40:45;3.70;54.80
78649;DHT22;67962;47.310;9.642;2023-04-06T03:43:11;3.70;54.50
78649;DHT22;67962;47.310;9.642;2023-04-06T03:45:36;3.80;54.70
78649;DHT22;67962;47.310;9.642;2023-04-06T03:48:02;3.80;54.10
78649;DHT22;67962;47.310;9.642;2023-04-06T03:50:28;3.90;54.20
78649;DHT22;67962;47.310;9.642;2023-04-06T03:52:55;3.90;53.50
78649;DHT22;67962;47.310;9.642;2023-04-06T03:55:21;3.80;53.50
78649;DHT22;67962;47.310;9.642;2023-04-06T03:57:47;3.70;53.80
78649;DHT22;67962;47.310;9.642;2023-04-06T04:00:13;3.70;53.80
78649;DHT22;67962;47.310;9.642;2023-04-06T04:02:39;3.80;54.20
78649;DHT22;67962;47.310;9.642;2023-04-06T04:05:05;3.80;54.30
78649;DHT22;67962;47.310;9.642;2023-04-06T04:07:31;3.60;54.60
78649;DHT22;67962;47.310;9.642;2023-04-06T04:09:56;3.70;54.90
78649;DHT22;67962;47.310;9.642;2023-04-06T04:12:22;3.60;55.30
78649;DHT22;67962;47.310;9.642;2023-04-06T04:14:48;3.60;55.20
78649;DHT22;67962;47.310;9.642;2023-04-06T04:17:14;3.70;55.00
78649;DHT22;67962;47.310;9.642;2023-04-06T04:19:39;3.70;54.10
78649;DHT22;67962;47.310;9.642;2023-04-06T04:22:05;3.70;54.20
78649;DHT22;67962;47.310;9.642;2023-04-06T04:24:32;3.70;54.50
78649;DHT22;67962;47.310;9.642;2023-04-06T04:26:58;3.70;54.00
78649;DHT22;67962;47.310;9.642;2023-04-06T04:29:23;3.70;53.80
78649;DHT22;67962;47.310;9.642;2023-04-06T04:31:49;3.80;53.90
78649;DHT22;67962;47.310;9.642;2023-04-06T04:34:15;3.80;54.80
78649;DHT22;67962;47.310;9.642;2023-04-06T04:36:41;3.80;53.90
78649;DHT22;67962;47.310;9.642;2023-04-06T04:39:07;3.90;53.70
78649;DHT22;67962;47.310;9.642;2023-04-06T04:41:33;3.90;53.80
78649;DHT22;67962;47.310;9.642;2023-04-06T04:43:59;3.80;54.10
78649;DHT22;67962;47.310;9.642;2023-04-06T04:46:25;3.70;54.70
78649;DHT22;67962;47.310;9.642;2023-04-06T04:48:50;3.70;54.90
78649;DHT22;67962;47.310;9.642;2023-04-06T04:51:16;3.70;54.90
78649;DHT22;67962;47.310;9.642;2023-04-06T04:53:42;3.60;56.10
78649;DHT22;67962;47.310;9.642;2023-04-06T04:56:07;3.70;54.60
78649;DHT22;67962;47.310;9.642;2023-04-06T04:58:33;3.70;54.50
78649;DHT22;67962;47.310;9.642;2023-04-06T05:00:59;3.80;54.20
78649;DHT22;67962;47.310;9.642;2023-04-06T05:03:26;3.80;53.60
78649;DHT22;67962;47.310;9.642;2023-04-06T05:05:52;3.80;53.60
78649;DHT22;67962;47.310;9.642;2023-04-06T05:08:18;3.90;53.40
78649;DHT22;67962;47.310;9.642;2023-04-06T05:10:44;3.90;53.70
78649;DHT22;67962;47.310;9.642;2023-04-06T05:13:10;3.90;53.80
78649;DHT22;67962;47.310;9.642;2023-04-06T05:15:36;3.90;53.80
78649;DHT22;67962;47.310;9.642;2023-04-06T05:18:06;3.90;54.00
78649;DHT22;67962;47.310;9.642;2023-04-06T05:20:32;3.90;53.60
78649;DHT22;67962;47.310;9.642;2023-04-06T05:22:58;3.90;53.60
78649;DHT22;67962;47.310;9.642;2023-04-06T05:25:24;3.90;53.80
78649;DHT22;67962;47.310;9.642;2023-04-06T05:27:49;4.00;53.60
78649;DHT22;67962;47.310;9.642;2023-04-06T05:30:15;3.90;53.30
78649;DHT22;67962;47.310;9.642;2023-04-06T05:32:41;3.90;53.60
78649;DHT22;67962;47.310;9.642;2023-04-06T05:35:09;4.00;53.70
78649;DHT22;67962;47.310;9.642;2023-04-06T05:37:35;4.00;54.00
78649;DHT22;67962;47.310;9.642;2023-04-06T05:40:00;4.00;54.20
78649;DHT22;67962;47.310;9.642;2023-04-06T05:42:26;3.90;54.70
78649;DHT22;67962;47.310;9.642;2023-04-06T05:44:52;3.90;54.20
78649;DHT22;67962;47.310;9.642;2023-04-06T05:47:18;4.00;54.30
78649;DHT22;67962;47.310;9.642;2023-04-06T05:49:44;4.00;54.10
78649;DHT22;67962;47.310;9.642;2023-04-06T05:52:10;4.00;53.50
78649;DHT22;67962;47.310;9.642;2023-04-06T05:54:36;4.10;53.90
78649;DHT22;67962;47.310;9.642;2023-04-06T05:57:03;4.00;53.30
78649;DHT22;67962;47.310;9.642;2023-04-06T05:59:30;4.00;53.50
78649;DHT22;67962;47.310;9.642;2023-04-06T06:01:56;4.10;53.20
78649;DHT22;67962;47.310;9.642;2023-04-06T06:04:22;4.10;53.50
78649;DHT22;67962;47.310;9.642;2023-04-06T06:06:48;4.20;53.90
78649;DHT22;67962;47.310;9.642;2023-04-06T06:09:13;4.30;53.70
78649;DHT22;67962;47.310;9.642;2023-04-06T06:11:39;4.50;53.40
78649;DHT22;67962;47.310;9.642;2023-04-06T06:14:06;4.50;53.40
78649;DHT22;67962;47.310;9.642;2023-04-06T06:16:31;4.70;53.90
78649;DHT22;67962;47.310;9.642;2023-04-06T06:18:57;4.70;53.70
78649;DHT22;67962;47.310;9.642;2023-04-06T06:21:23;4.80;53.90
78649;DHT22;67962;47.310;9.642;2023-04-06T06:23:48;4.90;52.10
78649;DHT22;67962;47.310;9.642;2023-04-06T06:26:15;4.90;52.10
78649;DHT22;67962;47.310;9.642;2023-04-06T06:28:41;5.00;52.80
78649;DHT22;67962;47.310;9.642;2023-04-06T06:31:06;5.20;52.90
78649;DHT22;67962;47.310;9.642;2023-04-06T06:33:32;5.50;53.50
78649;DHT22;67962;47.310;9.642;2023-04-06T06:35:58;5.70;50.50
78649;DHT22;67962;47.310;9.642;2023-04-06T06:38:24;6.00;49.80
78649;DHT22;67962;47.310;9.642;2023-04-06T06:40:50;6.20;48.80
78649;DHT22;67962;47.310;9.642;2023-04-06T06:43:15;6.50;48.10
78649;DHT22;67962;47.310;9.642;2023-04-06T06:45:42;6.80;47.00
78649;DHT22;67962;47.310;9.642;2023-04-06T06:48:08;7.10;46.60
78649;DHT22;67962;47.310;9.642;2023-04-06T06:50:33;7.40;45.20
78649;DHT22;67962;47.310;9.642;2023-04-06T06:52:59;7.70;44.70
78649;DHT22;67962;47.310;9.642;2023-04-06T06:55:25;8.00;43.30
78649;DHT22;67962;47.310;9.642;2023-04-06T06:57:52;8.20;43.20
78649;DHT22;67962;47.310;9.642;2023-04-06T07:00:18;8.50;40.90
78649;DHT22;67962;47.310;9.642;2023-04-06T07:02:46;8.60;41.30
78649;DHT22;67962;47.310;9.642;2023-04-06T07:05:12;8.80;42.20
78649;DHT22;67962;47.310;9.642;2023-04-06T07:07:38;9.10;42.10
78649;DHT22;67962;47.310;9.642;2023-04-06T07:10:04;9.40;40.90
78649;DHT22;67962;47.310;9.642;2023-04-06T07:12:30;9.70;40.40
78649;DHT22;67962;47.310;9.642;2023-04-06T07:14:56;10.00;40.00
78649;DHT22;67962;47.310;9.642;2023-04-06T07:17:22;10.20;40.00
78649;DHT22;67962;47.310;9.642;2023-04-06T07:19:47;10.40;39.20
78649;DHT22;67962;47.310;9.642;2023-04-06T07:22:13;10.70;38.90
78649;DHT22;67962;47.310;9.642;2023-04-06T07:24:39;10.90;38.70
78649;DHT22;67962;47.310;9.642;2023-04-06T07:27:05;11.10;37.10
78649;DHT22;67962;47.310;9.642;2023-04-06T07:29:31;11.10;35.90
78649;DHT22;67962;47.310;9.642;2023-04-06T07:31:57;11.20;36.50
78649;DHT22;67962;47.310;9.642;2023-04-06T07:34:22;11.50;36.40
78649;DHT22;67962;47.310;9.642;2023-04-06T07:36:48;11.50;35.50
78649;DHT22;67962;47.310;9.642;2023-04-06T07:39:14;11.60;34.70
78649;DHT22;67962;47.310;9.642;2023-04-06T07:41:40;11.80;35.40
78649;DHT22;67962;47.310;9.642;2023-04-06T07:44:06;12.10;35.60
78649;DHT22;67962;47.310;9.642;2023-04-06T07:46:31;12.20;34.00
78649;DHT22;67962;47.310;9.642;2023-04-06T07:48:59;12.30;31.30
78649;DHT22;67962;47.310;9.642;2023-04-06T07:51:25;12.10;31.60
78649;DHT22;67962;47.310;9.642;2023-04-06T07:53:51;12.10;33.70
78649;DHT22;67962;47.310;9.642;2023-04-06T07:56:17;12.60;34.60
78649;DHT22;67962;47.310;9.642;2023-04-06T07:58:43;12.90;32.50
78649;DHT22;67962;47.310;9.642;2023-04-06T08:01:09;13.10;31.70
78649;DHT22;67962;47.310;9.642;2023-04-06T08:03:35;13.10;30.10
78649;DHT22;67962;47.310;9.642;2023-04-06T08:06:01;13.10;32.60
78649;DHT22;67962;47.310;9.642;2023-04-06T08:08:28;13.50;32.90
78649;DHT22;67962;47.310;9.642;2023-04-06T08:10:54;13.90;31.60
78649;DHT22;67962;47.310;9.642;2023-04-06T08:13:20;14.00;31.10
78649;DHT22;67962;47.310;9.642;2023-04-06T08:15:46;14.50;39.70
78649;DHT22;67962;47.310;9.642;2023-04-06T08:18:12;14.90;29.90
78649;DHT22;67962;47.310;9.642;2023-04-06T08:20:38;14.70;30.10
78649;DHT22;67962;47.310;9.642;2023-04-06T08:23:04;14.60;29.90
78649;DHT22;67962;47.310;9.642;2023-04-06T08:25:30;14.50;30.10
78649;DHT22;67962;47.310;9.642;2023-04-06T08:27:56;14.70;31.20
78649;DHT22;67962;47.310;9.642;2023-04-06T08:30:21;15.00;31.00
78649;DHT22;67962;47.310;9.642;2023-04-06T08:32:47;15.30;29.90
78649;DHT22;67962;47.310;9.642;2023-04-06T08:35:13;15.40;29.40
78649;DHT22;67962;47.310;9.642;2023-04-06T08:37:39;15.60;28.00
78649;DHT22;67962;47.310;9.642;2023-04-06T08:40:05;15.50;29.10
78649;DHT22;67962;47.310;9.642;2023-04-06T08:42:40;15.80;28.80
78649;DHT22;67962;47.310;9.642;2023-04-06T08:45:08;16.00;29.20
78649;DHT22;67962;47.310;9.642;2023-04-06T08:47:36;15.70;28.20
78649;DHT22;67962;47.310;9.642;2023-04-06T08:50:04;15.60;28.30
78649;DHT22;67962;47.310;9.642;2023-04-06T08:52:32;15.40;29.00
78649;DHT22;67962;47.310;9.642;2023-04-06T08:54:58;15.40;28.10
78649;DHT22;67962;47.310;9.642;2023-04-06T08:57:25;15.50;29.30
78649;DHT22;67962;47.310;9.642;2023-04-06T08:59:51;15.80;26.70
78649;DHT22;67962;47.310;9.642;2023-04-06T09:02:18;15.50;26.30
78649;DHT22;67962;47.310;9.642;2023-04-06T09:04:54;15.40;27.40
78649;DHT22;67962;47.310;9.642;2023-04-06T09:07:20;15.70;28.20
78649;DHT22;67962;47.310;9.642;2023-04-06T09:09:46;16.00;28.60
78649;DHT22;67962;47.310;9.642;2023-04-06T09:12:27;16.10;28.90
78649;DHT22;67962;47.310;9.642;2023-04-06T09:14:53;16.30;28.40
78649;DHT22;67962;47.310;9.642;2023-04-06T09:17:26;16.30;28.10
78649;DHT22;67962;47.310;9.642;2023-04-06T09:19:52;16.50;27.80
78649;DHT22;67962;47.310;9.642;2023-04-06T09:22:18;16.40;27.90
78649;DHT22;67962;47.310;9.642;2023-04-06T09:27:10;17.10;26.60
78649;DHT22;67962;47.310;9.642;2023-04-06T09:29:36;17.30;26.30
78649;DHT22;67962;47.310;9.642;2023-04-06T09:32:06;17.30;26.20
78649;DHT22;67962;47.310;9.642;2023-04-06T09:34:33;17.40;26.40
78649;DHT22;67962;47.310;9.642;2023-04-06T09:36:59;17.10;24.70
78649;DHT22;67962;47.310;9.642;2023-04-06T09:39:24;16.90;24.50
78649;DHT22;67962;47.310;9.642;2023-04-06T09:41:52;17.10;25.60
78649;DHT22;67962;47.310;9.642;2023-04-06T09:44:18;17.20;25.30
78649;DHT22;67962;47.310;9.642;2023-04-06T09:46:45;17.20;23.80
78649;DHT22;67962;47.310;9.642;2023-04-06T09:49:12;17.50;25.00
78649;DHT22;67962;47.310;9.642;2023-04-06T09:51:40;17.90;24.50
78649;DHT22;67962;47.310;9.642;2023-04-06T09:54:07;18.00;23.50
78649;DHT22;67962;47.310;9.642;2023-04-06T10:01:56;17.90;24.00
78649;DHT22;67962;47.310;9.642;2023-04-06T10:04:37;17.90;24.10
78649;DHT22;67962;47.310;9.642;2023-04-06T10:07:07;18.10;23.60
78649;DHT22;67962;47.310;9.642;2023-04-06T10:09:35;18.10;22.00
78649;DHT22;67962;47.310;9.642;2023-04-06T10:12:06;18.00;23.00
78649;DHT22;67962;47.310;9.642;2023-04-06T10:14:33;18.10;22.40
78649;DHT22;67962;47.310;9.642;2023-04-06T10:17:05;18.40;20.80
78649;DHT22;67962;47.310;9.642;2023-04-06T10:19:53;18.30;21.00
78649;DHT22;67962;47.310;9.642;2023-04-06T10:22:49;18.30;20.50
78649;DHT22;67962;47.310;9.642;2023-04-06T10:25:29;18.20;21.30
78649;DHT22;67962;47.310;9.642;2023-04-06T10:28:06;18.10;20.00
78649;DHT22;67962;47.310;9.642;2023-04-06T10:30:33;18.00;21.00
78649;DHT22;67962;47.310;9.642;2023-04-06T10:32:59;18.10;21.60
78649;DHT22;67962;47.310;9.642;2023-04-06T10:35:36;18.20;20.70
78649;DHT22;67962;47.310;9.642;2023-04-06T10:38:04;18.10;21.60
78649;DHT22;67962;47.310;9.642;2023-04-06T10:40:30;17.90;20.50
78649;DHT22;67962;47.310;9.642;2023-04-06T10:43:10;17.80;21.50
78649;DHT22;67962;47.310;9.642;2023-04-06T10:45:37;17.80;22.10
78649;DHT22;67962;47.310;9.642;2023-04-06T10:48:16;18.00;22.70
78649;DHT22;67962;47.310;9.642;2023-04-06T10:50:44;18.30;21.50
78649;DHT22;67962;47.310;9.642;2023-04-06T10:53:10;18.20;21.40
78649;DHT22;67962;47.310;9.642;2023-04-06T10:55:39;18.60;22.80
78649;DHT22;67962;47.310;9.642;2023-04-06T10:58:08;18.90;21.50
78649;DHT22;67962;47.310;9.642;2023-04-06T11:00:35;19.10;22.80
78649;DHT22;67962;47.310;9.642;2023-04-06T11:03:01;19.10;22.20
78649;DHT22;67962;47.310;9.642;2023-04-06T11:05:27;19.00;22.10
78649;DHT22;67962;47.310;9.642;2023-04-06T11:07:53;19.00;21.60
78649;DHT22;67962;47.310;9.642;2023-04-06T11:10:22;19.10;21.60
78649;DHT22;67962;47.310;9.642;2023-04-06T11:12:57;19.00;21.40
78649;DHT22;67962;47.310;9.642;2023-04-06T11:15:23;18.90;22.00
78649;DHT22;67962;47.310;9.642;2023-04-06T11:17:49;18.90;21.60
78649;DHT22;67962;47.310;9.642;2023-04-06T11:20:15;18.80;22.00
78649;DHT22;67962;47.310;9.642;2023-04-06T11:22:51;18.80;22.00
78649;DHT22;67962;47.310;9.642;2023-04-06T11:25:17;18.80;22.10
78649;DHT22;67962;47.310;9.642;2023-04-06T11:27:45;18.60;21.80
78649;DHT22;67962;47.310;9.642;2023-04-06T11:30:12;18.60;22.40
78649;DHT22;67962;47.310;9.642;2023-04-06T11:32:42;18.60;21.60
78649;DHT22;67962;47.310;9.642;2023-04-06T11:35:27;18.70;21.70
78649;DHT22;67962;47.310;9.642;2023-04-06T11:37:52;19.00;22.00
78649;DHT22;67962;47.310;9.642;2023-04-06T11:40:22;19.10;21.40
78649;DHT22;67962;47.310;9.642;2023-04-06T11:42:55;19.20;21.60
78649;DHT22;67962;47.310;9.642;2023-04-06T11:45:22;19.20;21.20
78649;DHT22;67962;47.310;9.642;2023-04-06T11:47:56;19.10;21.90
78649;DHT22;67962;47.310;9.642;2023-04-06T11:50:23;18.90;21.70
78649;DHT22;67962;47.310;9.642;2023-04-06T11:52:58;18.70;21.50
78649;DHT22;67962;47.310;9.642;2023-04-06T11:55:28;18.90;22.10
78649;DHT22;67962;47.310;9.642;2023-04-06T11:57:54;19.10;22.00
78649;DHT22;67962;47.310;9.642;2023-04-06T12:00:20;19.20;21.10
78649;DHT22;67962;47.310;9.642;2023-04-06T12:02:47;19.20;20.30
78649;DHT22;67962;47.310;9.642;2023-04-06T12:05:13;18.90;21.10
78649;DHT22;67962;47.310;9.642;2023-04-06T12:07:40;18.70;22.00
78649;DHT22;67962;47.310;9.642;2023-04-06T12:10:06;18.50;21.00
78649;DHT22;67962;47.310;9.642;2023-04-06T12:12:31;18.30;21.90
78649;DHT22;67962;47.310;9.642;2023-04-06T12:14:57;18.30;20.50
78649;DHT22;67962;47.310;9.642;2023-04-06T12:17:24;18.30;22.10
78649;DHT22;67962;47.310;9.642;2023-04-06T12:19:50;18.40;22.10
78649;DHT22;67962;47.310;9.642;2023-04-06T12:22:17;18.50;22.00
78649;DHT22;67962;47.310;9.642;2023-04-06T12:24:43;18.50;21.80
78649;DHT22;67962;47.310;9.642;2023-04-06T12:27:08;18.50;22.40
78649;DHT22;67962;47.310;9.642;2023-04-06T12:29:36;18.40;21.90
78649;DHT22;67962;47.310;9.642;2023-04-06T12:32:02;18.30;22.40
78649;DHT22;67962;47.310;9.642;2023-04-06T12:34:27;18.30;22.20
78649;DHT22;67962;47.310;9.642;2023-04-06T12:36:53;18.30;22.20
78649;DHT22;67962;47.310;9.642;2023-04-06T12:39:19;18.30;22.30
78649;DHT22;67962;47.310;9.642;2023-04-06T12:41:45;18.30;22.40
78649;DHT22;67962;47.310;9.642;2023-04-06T12:44:11;18.40;22.40
78649;DHT22;67962;47.310;9.642;2023-04-06T12:46:37;18.50;21.50
78649;DHT22;67962;47.310;9.642;2023-04-06T12:49:03;18.00;22.20
78649;DHT22;67962;47.310;9.642;2023-04-06T12:51:29;17.80;22.30
78649;DHT22;67962;47.310;9.642;2023-04-06T12:53:56;17.60;25.10
78649;DHT22;67962;47.310;9.642;2023-04-06T12:56:22;17.40;23.60
78649;DHT22;67962;47.310;9.642;2023-04-06T12:58:49;17.40;23.20
78649;DHT22;67962;47.310;9.642;2023-04-06T13:01:16;17.40;23.50
78649;DHT22;67962;47.310;9.642;2023-04-06T13:03:41;17.40;21.70
78649;DHT22;67962;47.310;9.642;2023-04-06T13:06:07;17.10;23.20
78649;DHT22;67962;47.310;9.642;2023-04-06T13:08:37;16.90;24.00
78649;DHT22;67962;47.310;9.642;2023-04-06T13:11:03;16.80;23.40
78649;DHT22;67962;47.310;9.642;2023-04-06T13:13:30;16.70;23.80
78649;DHT22;67962;47.310;9.642;2023-04-06T13:16:03;16.80;24.20
78649;DHT22;67962;47.310;9.642;2023-04-06T13:18:30;16.70;22.40
78649;DHT22;67962;47.310;9.642;2023-04-06T13:20:57;16.80;24.00
78649;DHT22;67962;47.310;9.642;2023-04-06T13:23:23;16.90;22.50
78649;DHT22;67962;47.310;9.642;2023-04-06T13:26:06;16.80;20.20
78649;DHT22;67962;47.310;9.642;2023-04-06T13:28:33;16.50;19.40
78649;DHT22;67962;47.310;9.642;2023-04-06T13:30:59;16.40;19.40
78649;DHT22;67962;47.310;9.642;2023-04-06T13:33:29;16.30;20.90
78649;DHT22;67962;47.310;9.642;2023-04-06T13:35:55;16.50;22.10
78649;DHT22;67962;47.310;9.642;2023-04-06T13:38:21;16.60;20.40
78649;DHT22;67962;47.310;9.642;2023-04-06T13:40:49;16.70;20.50
78649;DHT22;67962;47.310;9.642;2023-04-06T13:43:15;16.50;21.80
78649;DHT22;67962;47.310;9.642;2023-04-06T13:45:41;16.50;20.50
78649;DHT22;67962;47.310;9.642;2023-04-06T13:48:06;16.40;20.70
78649;DHT22;67962;47.310;9.642;2023-04-06T13:50:33;16.50;20.10
78649;DHT22;67962;47.310;9.642;2023-04-06T13:52:58;16.50;20.70
78649;DHT22;67962;47.310;9.642;2023-04-06T13:55:24;16.70;20.10
78649;DHT22;67962;47.310;9.642;2023-04-06T13:57:50;16.80;20.20
78649;DHT22;67962;47.310;9.642;2023-04-06T14:00:16;16.80;20.60
78649;DHT22;67962;47.310;9.642;2023-04-06T14:02:42;16.80;21.70
78649;DHT22;67962;47.310;9.642;2023-04-06T14:05:08;17.00;22.10
78649;DHT22;67962;47.310;9.642;2023-04-06T14:07:34;17.10;22.70
78649;DHT22;67962;47.310;9.642;2023-04-06T14:10:00;17.30;22.00
78649;DHT22;67962;47.310;9.642;2023-04-06T14:12:26;17.30;20.90
78649;DHT22;67962;47.310;9.642;2023-04-06T14:14:52;17.30;22.10
78649;DHT22;67962;47.310;9.642;2023-04-06T14:17:18;17.30;21.20
78649;DHT22;67962;47.310;9.642;2023-04-06T14:19:44;17.10;21.50
78649;DHT22;67962;47.310;9.642;2023-04-06T14:22:09;17.00;21.70
78649;DHT22;67962;47.310;9.642;2023-04-06T14:24:35;16.90;20.30
78649;DHT22;67962;47.310;9.642;2023-04-06T14:27:02;16.70;20.50
78649;DHT22;67962;47.310;9.642;2023-04-06T14:29:28;16.60;21.60
78649;DHT22;67962;47.310;9.642;2023-04-06T14:31:54;16.60;21.10
78649;DHT22;67962;47.310;9.642;2023-04-06T14:34:26;16.60;22.90
78649;DHT22;67962;47.310;9.642;2023-04-06T14:36:52;16.50;22.30
78649;DHT22;67962;47.310;9.642;2023-04-06T14:39:18;16.50;22.20
78649;DHT22;67962;47.310;9.642;2023-04-06T14:41:44;16.30;21.40
78649;DHT22;67962;47.310;9.642;2023-04-06T14:44:10;16.10;21.80
78649;DHT22;67962;47.310;9.642;2023-04-06T14:46:37;16.00;22.60
78649;DHT22;67962;47.310;9.642;2023-04-06T14:49:03;16.10;24.30
78649;DHT22;67962;47.310;9.642;2023-04-06T14:51:29;16.20;23.60
78649;DHT22;67962;47.310;9.642;2023-04-06T14:53:55;16.40;22.80
78649;DHT22;67962;47.310;9.642;2023-04-06T14:56:22;16.40;22.80
78649;DHT22;67962;47.310;9.642;2023-04-06T14:58:49;16.50;24.50
78649;DHT22;67962;47.310;9.642;2023-04-06T15:01:16;16.60;24.20
78649;DHT22;67962;47.310;9.642;2023-04-06T15:03:42;16.60;22.30
78649;DHT22;67962;47.310;9.642;2023-04-06T15:06:12;16.40;22.40
78649;DHT22;67962;47.310;9.642;2023-04-06T15:08:40;16.20;23.60
78649;DHT22;67962;47.310;9.642;2023-04-06T15:11:06;16.10;23.00
78649;DHT22;67962;47.310;9.642;2023-04-06T15:13:32;16.10;24.20
78649;DHT22;67962;47.310;9.642;2023-04-06T15:15:57;16.00;22.70
78649;DHT22;67962;47.310;9.642;2023-04-06T15:18:23;15.80;22.70
78649;DHT22;67962;47.310;9.642;2023-04-06T15:20:49;15.90;23.40
78649;DHT22;67962;47.310;9.642;2023-04-06T15:23:15;15.90;23.00
78649;DHT22;67962;47.310;9.642;2023-04-06T15:25:40;16.00;22.30
78649;DHT22;67962;47.310;9.642;2023-04-06T15:28:06;15.90;23.30
78649;DHT22;67962;47.310;9.642;2023-04-06T15:30:32;15.80;24.30
78649;DHT22;67962;47.310;9.642;2023-04-06T15:32:59;15.90;25.60
78649;DHT22;67962;47.310;9.642;2023-04-06T15:35:27;15.90;26.20
78649;DHT22;67962;47.310;9.642;2023-04-06T15:37:56;15.80;25.40
78649;DHT22;67962;47.310;9.642;2023-04-06T15:40:23;15.90;24.30
78649;DHT22;67962;47.310;9.642;2023-04-06T15:42:48;15.70;24.30